Time;durP1;ratioP1;P1;durP2;ratioP2;P2;SDS_P1;SDS_P2;PMS_P1;PMS_P2;Temp;Humidity;BMP_temperature;BMP_pressure;BME280_temperature;BME280_humidity;BME280_pressure;Samples;Min_cycle;Max_cycle;Signal;HPM_P1;HPM_P2
2023/04/29 00:02:02;;;;;;;;;;;;;;;4.75;63.70;95241.72;5093851;28;1060;-54
2023/04/29 00:04:28;;;;;;;;;;;;;;;5.11;60.11;95249.47;5093807;28;1041;-54
2023/04/29 00:06:55;;;;;;;;;;;;;;;5.08;62.85;95243.47;5093450;28;1983;-54
2023/04/29 00:09:21;;;;;;;;;;;;;;;4.88;63.90;95246.88;5093778;28;964;-54
2023/04/29 00:11:47;;;;;;;;;;;;;;;4.65;64.68;95235.50;5093480;28;917;-54
2023/04/29 00:14:13;;;;;;;;;;;;;;;4.66;63.32;95245.94;5093531;28;1561;-54
2023/04/29 00:16:39;;;;;;;;;;;;;;;4.94;64.02;95237.59;5093402;28;1230;-54
2023/04/29 00:19:05;;;;;;;;;;;;;;;4.95;64.91;95239.25;5093415;28;1131;-54
2023/04/29 00:21:32;;;;;;;;;;;;;;;4.82;65.31;95234.13;5093646;28;977;-54
2023/04/29 00:23:59;;;;;;;;;;;;;;;4.46;67.13;95249.34;5093604;28;1021;-53
2023/04/29 00:26:25;;;;;;;;;;;;;;;4.23;67.63;95241.41;5093337;28;1988;-54
2023/04/29 00:28:51;;;;;;;;;;;;;;;4.37;68.13;95242.97;5093559;28;1254;-54
2023/04/29 00:31:17;;;;;;;;;;;;;;;4.46;67.20;95242.25;5093343;28;1064;-54
2023/04/29 00:33:43;;;;;;;;;;;;;;;4.34;66.31;95237.06;5093309;28;1026;-54
2023/04/29 00:36:09;;;;;;;;;;;;;;;4.05;66.95;95242.84;5093538;28;1059;-53
2023/04/29 00:38:35;;;;;;;;;;;;;;;4.15;67.71;95237.66;5094005;28;1049;-53
2023/04/29 00:41:01;;;;;;;;;;;;;;;4.33;67.95;95230.94;5097372;28;1993;-54
2023/04/29 00:43:27;;;;;;;;;;;;;;;4.50;66.95;95235.75;5097605;28;989;-54
2023/04/29 00:45:53;;;;;;;;;;;;;;;4.56;66.79;95228.28;5097417;28;1995;-54
2023/04/29 00:48:19;;;;;;;;;;;;;;;4.31;67.58;95227.56;5095940;28;1097;-54
2023/04/29 00:50:46;;;;;;;;;;;;;;;4.28;67.12;95233.09;5097209;28;1045;-54
2023/04/29 00:53:12;;;;;;;;;;;;;;;4.40;67.24;95232.16;5097392;28;1145;-54
2023/04/29 00:55:39;;;;;;;;;;;;;;;4.34;67.18;95226.47;5096965;28;1052;-54
2023/04/29 00:58:06;;;;;;;;;;;;;;;4.06;68.01;95223.34;5096089;28;1064;-54
2023/04/29 01:00:32;;;;;;;;;;;;;;;3.99;69.63;95220.34;5096931;28;1037;-54
2023/04/29 01:02:58;;;;;;;;;;;;;;;4.05;69.59;95230.44;5097058;28;994;-54
2023/04/29 01:05:24;;;;;;;;;;;;;;;4.16;68.94;95234.91;5097178;28;1040;-54
2023/04/29 01:08:09;;;;;;;;;;;;;;;4.07;69.03;95225.88;5096818;28;1910;-54
2023/04/29 01:10:40;;;;;;;;;;;;;;;3.95;69.10;95231.31;5097086;28;1028;-54
2023/04/29 01:13:36;;;;;;;;;;;;;;;3.90;69.57;95239.56;5096867;28;1543;-54
2023/04/29 01:16:03;;;;;;;;;;;;;;;4.29;68.89;95229.50;5075195;28;1316;-54
2023/04/29 01:18:35;;;;;;;;;;;;;;;4.26;68.66;95227.09;5096793;28;1009;-54
2023/04/29 01:21:01;;;;;;;;;;;;;;;4.06;69.81;95232.16;5096872;28;958;-54
2023/04/29 01:23:28;;;;;;;;;;;;;;;3.77;70.32;95231.72;5096650;28;1039;-54
2023/04/29 01:25:54;;;;;;;;;;;;;;;3.83;69.90;95233.94;5096361;28;1934;-54
2023/04/29 01:28:26;;;;;;;;;;;;;;;3.98;70.35;95231.03;5096455;28;1045;-54
2023/04/29 01:30:59;;;;;;;;;;;;;;;4.04;70.29;95219.97;5096343;28;1025;-54
2023/04/29 01:33:38;;;;;;;;;;;;;;;4.09;69.45;95223.94;5096352;28;1095;-54
2023/04/29 01:36:21;;;;;;;;;;;;;;;4.00;68.94;95223.81;5096658;28;957;-54
2023/04/29 01:39:06;;;;;;;;;;;;;;;4.03;68.46;95219.13;5096674;28;1008;-54
2023/04/29 01:41:32;;;;;;;;;;;;;;;3.88;70.00;95221.16;5096435;28;1032;-54
2023/04/29 01:44:00;;;;;;;;;;;;;;;3.76;70.15;95226.59;5096104;28;1699;-54
2023/04/29 01:46:27;;;;;;;;;;;;;;;3.61;69.63;95218.84;5095991;28;1989;-54
2023/04/29 01:48:53;;;;;;;;;;;;;;;3.52;69.87;95219.56;5096272;28;1016;-54
2023/04/29 01:51:20;;;;;;;;;;;;;;;3.54;69.34;95214.97;5095239;28;1032;-54
2023/04/29 01:53:46;;;;;;;;;;;;;;;3.59;69.58;95210.19;5096041;28;1071;-54
2023/04/29 01:56:12;;;;;;;;;;;;;;;3.73;69.39;95211.78;5095812;28;1032;-53
2023/04/29 01:58:38;;;;;;;;;;;;;;;3.75;69.23;95214.31;5095863;28;1132;-54
2023/04/29 02:01:05;;;;;;;;;;;;;;;3.53;69.66;95210.66;5096005;28;960;-54
2023/04/29 02:03:31;;;;;;;;;;;;;;;3.55;70.50;95219.31;5095764;28;1088;-54
2023/04/29 02:05:58;;;;;;;;;;;;;;;3.57;69.94;95213.94;5095739;28;1906;-54
2023/04/29 02:08:24;;;;;;;;;;;;;;;3.70;70.96;95220.81;5095706;28;976;-54
2023/04/29 02:10:51;;;;;;;;;;;;;;;3.81;69.79;95219.13;5095521;28;1068;-54
2023/04/29 02:13:17;;;;;;;;;;;;;;;3.70;69.95;95217.31;5095526;28;1891;-54
2023/04/29 02:15:43;;;;;;;;;;;;;;;3.62;69.33;95212.59;5095535;28;1215;-54
2023/04/29 02:18:09;;;;;;;;;;;;;;;3.41;70.18;95211.59;5095761;28;1001;-54
2023/04/29 02:20:35;;;;;;;;;;;;;;;3.28;70.76;95207.25;5095405;28;1872;-54
2023/04/29 02:23:01;;;;;;;;;;;;;;;3.28;70.71;95207.25;5095439;28;969;-54
2023/04/29 02:25:27;;;;;;;;;;;;;;;3.15;69.36;95214.41;5095228;28;1032;-54
2023/04/29 02:27:53;;;;;;;;;;;;;;;3.12;69.47;95211.97;5095505;28;1905;-54
2023/04/29 02:30:19;;;;;;;;;;;;;;;3.43;68.99;95209.66;5095480;28;1121;-54
2023/04/29 02:32:45;;;;;;;;;;;;;;;3.56;68.37;95204.28;5095220;28;1065;-54
2023/04/29 02:35:11;;;;;;;;;;;;;;;3.54;68.39;95207.06;5095036;28;1041;-54
2023/04/29 02:37:37;;;;;;;;;;;;;;;3.36;69.57;95209.31;5095165;28;1116;-54
2023/04/29 02:40:04;;;;;;;;;;;;;;;3.23;70.75;95204.09;5094886;28;1036;-54
2023/04/29 02:42:30;;;;;;;;;;;;;;;3.21;70.54;95205.19;5094941;28;1096;-54
2023/04/29 02:44:57;;;;;;;;;;;;;;;3.33;70.75;95204.25;5095128;28;985;-54
2023/04/29 02:47:24;;;;;;;;;;;;;;;3.13;71.14;95205.75;5094831;28;1910;-54
2023/04/29 02:49:50;;;;;;;;;;;;;;;3.23;70.36;95212.03;5094993;28;1051;-54
2023/04/29 02:52:16;;;;;;;;;;;;;;;3.42;69.68;95215.94;5094836;28;965;-54
2023/04/29 02:54:42;;;;;;;;;;;;;;;3.55;69.92;95218.47;5094698;28;910;-54
2023/04/29 02:57:09;;;;;;;;;;;;;;;3.56;69.60;95217.50;5095074;28;972;-54
2023/04/29 02:59:35;;;;;;;;;;;;;;;3.55;69.78;95229.91;5094623;28;1029;-54
2023/04/29 03:02:01;;;;;;;;;;;;;;;3.41;69.89;95228.28;5095004;28;1182;-54
2023/04/29 03:04:27;;;;;;;;;;;;;;;3.23;71.04;95230.50;5094636;28;974;-54
2023/04/29 03:06:56;;;;;;;;;;;;;;;3.32;71.34;95231.63;5094590;28;1986;-54
2023/04/29 03:09:22;;;;;;;;;;;;;;;3.44;71.05;95232.50;5093285;28;1350;-54
2023/04/29 03:11:48;;;;;;;;;;;;;;;3.55;69.88;95227.25;5094730;28;1033;-54
2023/04/29 03:14:14;;;;;;;;;;;;;;;3.54;70.82;95222.91;5094646;28;1335;-54
2023/04/29 03:16:41;;;;;;;;;;;;;;;3.62;71.05;95227.63;5094181;28;1365;-54
2023/04/29 03:19:07;;;;;;;;;;;;;;;3.54;71.09;95235.31;5094297;28;1096;-54
2023/04/29 03:21:33;;;;;;;;;;;;;;;3.63;71.00;95246.00;5094437;28;1001;-54
2023/04/29 03:23:59;;;;;;;;;;;;;;;3.46;72.08;95238.53;5094568;28;1036;-54
2023/04/29 03:26:25;;;;;;;;;;;;;;;3.28;71.77;95238.09;5094099;28;1905;-54
2023/04/29 03:28:51;;;;;;;;;;;;;;;3.54;72.45;95249.34;5094121;28;1085;-55
2023/04/29 03:31:19;;;;;;;;;;;;;;;3.77;71.46;95260.81;5094240;28;981;-55
2023/04/29 03:33:45;;;;;;;;;;;;;;;3.94;71.99;95256.88;5094081;28;1049;-54
2023/04/29 03:36:12;;;;;;;;;;;;;;;3.99;70.48;95267.97;5093760;28;1079;-54
2023/04/29 03:38:38;;;;;;;;;;;;;;;4.10;70.64;95270.63;5094278;28;1325;-55
2023/04/29 03:41:04;;;;;;;;;;;;;;;4.07;70.09;95270.84;5093847;28;1061;-55
2023/04/29 03:43:30;;;;;;;;;;;;;;;4.13;69.26;95260.78;5094027;28;930;-54
2023/04/29 03:45:56;;;;;;;;;;;;;;;4.23;69.81;95257.28;5093833;28;1037;-54
2023/04/29 03:48:22;;;;;;;;;;;;;;;4.36;69.90;95270.38;5093954;28;1987;-54
2023/04/29 03:50:48;;;;;;;;;;;;;;;4.46;69.67;95273.19;5093744;28;1108;-55
2023/04/29 03:53:14;;;;;;;;;;;;;;;4.42;69.82;95272.59;5093654;28;1110;-55
2023/04/29 03:55:40;;;;;;;;;;;;;;;4.44;71.02;95278.59;5093902;28;932;-53
2023/04/29 03:58:06;;;;;;;;;;;;;;;4.45;70.78;95280.25;5094001;28;974;-54
2023/04/29 04:00:32;;;;;;;;;;;;;;;4.36;70.67;95269.56;5092580;28;993;-54
2023/04/29 04:02:58;;;;;;;;;;;;;;;4.33;70.34;95275.09;5093772;28;981;-54
2023/04/29 04:05:25;;;;;;;;;;;;;;;4.47;71.27;95267.75;5093767;28;1071;-54
2023/04/29 04:07:51;;;;;;;;;;;;;;;4.62;70.79;95276.28;5093414;28;1898;-55
2023/04/29 04:10:17;;;;;;;;;;;;;;;4.80;70.28;95275.78;5093440;28;1045;-55
2023/04/29 04:12:44;;;;;;;;;;;;;;;4.98;70.57;95268.16;5093616;28;1024;-54
2023/04/29 04:15:10;;;;;;;;;;;;;;;5.03;70.93;95276.59;5092827;28;1636;-55
2023/04/29 04:17:37;;;;;;;;;;;;;;;4.72;72.63;95280.84;5093719;28;1039;-55
2023/04/29 04:20:04;;;;;;;;;;;;;;;4.59;72.06;95273.91;5093429;28;1013;-55
2023/04/29 04:22:31;;;;;;;;;;;;;;;4.38;72.48;95271.13;5093265;28;1045;-55
2023/04/29 04:25:00;;;;;;;;;;;;;;;4.43;72.40;95270.75;5093448;28;1032;-55
2023/04/29 04:27:28;;;;;;;;;;;;;;;4.62;70.30;95270.16;5093415;28;1979;-55
2023/04/29 04:29:55;;;;;;;;;;;;;;;4.82;70.78;95273.88;5093508;28;1059;-55
2023/04/29 04:32:23;;;;;;;;;;;;;;;5.12;70.70;95270.53;5093097;28;1122;-55
2023/04/29 04:34:51;;;;;;;;;;;;;;;5.41;71.83;95277.94;5093290;28;1020;-54
2023/04/29 04:37:19;;;;;;;;;;;;;;;5.38;72.47;95279.00;5093214;28;1092;-55
2023/04/29 04:39:47;;;;;;;;;;;;;;;5.36;72.64;95280.09;5093309;28;1012;-55
2023/04/29 04:42:15;;;;;;;;;;;;;;;5.45;71.71;95282.00;5093134;28;1009;-54
2023/04/29 04:44:42;;;;;;;;;;;;;;;5.46;71.67;95281.88;5093324;28;1097;-55
2023/04/29 04:47:11;;;;;;;;;;;;;;;5.46;71.49;95284.53;5093020;28;1929;-55
2023/04/29 04:49:40;;;;;;;;;;;;;;;5.41;71.53;95288.53;5093307;28;985;-54
2023/04/29 04:52:07;;;;;;;;;;;;;;;5.43;72.68;95290.09;5093145;28;1037;-55
2023/04/29 04:54:37;;;;;;;;;;;;;;;5.34;72.44;95292.66;5091803;28;1850;-53
2023/04/29 04:57:04;;;;;;;;;;;;;;;5.28;72.71;95304.59;5093427;28;1005;-55
2023/04/29 04:59:33;;;;;;;;;;;;;;;5.39;72.61;95288.66;5092001;28;1241;-55
2023/04/29 05:02:00;;;;;;;;;;;;;;;5.44;71.43;95285.63;5092921;28;965;-55
2023/04/29 05:04:28;;;;;;;;;;;;;;;5.50;71.46;95289.56;5093162;28;1082;-56
2023/04/29 05:06:55;;;;;;;;;;;;;;;5.60;71.88;95287.84;5092866;28;1987;-55
2023/04/29 05:09:23;;;;;;;;;;;;;;;5.78;71.43;95282.81;5092725;28;1049;-55
2023/04/29 05:11:50;;;;;;;;;;;;;;;6.08;70.83;95291.84;5093023;28;1011;-55
2023/04/29 05:14:17;;;;;;;;;;;;;;;6.19;70.10;95297.94;5092849;28;1617;-55
2023/04/29 05:16:45;;;;;;;;;;;;;;;6.34;68.93;95298.44;5092647;28;1131;-55
2023/04/29 05:19:11;;;;;;;;;;;;;;;6.31;68.88;95296.03;5093025;28;1013;-55
2023/04/29 05:21:37;;;;;;;;;;;;;;;6.41;68.47;95302.25;5093186;28;1001;-55
2023/04/29 05:24:03;;;;;;;;;;;;;;;6.64;68.20;95299.44;5092676;28;1187;-54
2023/04/29 05:26:29;;;;;;;;;;;;;;;6.79;67.77;95290.13;5093448;28;1986;-55
2023/04/29 05:28:55;;;;;;;;;;;;;;;6.78;66.87;95288.41;5096790;28;966;-55
2023/04/29 05:31:21;;;;;;;;;;;;;;;6.95;66.77;95299.41;5095393;28;965;-55
2023/04/29 05:33:47;;;;;;;;;;;;;;;7.31;65.21;95297.09;5096711;28;1036;-55
2023/04/29 05:36:14;;;;;;;;;;;;;;;7.90;63.82;95292.66;5096498;28;1039;-55
2023/04/29 05:38:40;;;;;;;;;;;;;;;8.41;61.13;95294.09;5096372;28;1031;-55
2023/04/29 05:41:06;;;;;;;;;;;;;;;9.27;60.70;95285.06;5096236;28;1561;-55
2023/04/29 05:43:32;;;;;;;;;;;;;;;9.72;56.84;95281.53;5096214;28;1016;-55
2023/04/29 05:45:58;;;;;;;;;;;;;;;10.14;56.81;95275.53;5096056;28;1057;-55
2023/04/29 05:48:25;;;;;;;;;;;;;;;10.50;54.97;95283.50;5094745;28;1902;-54
2023/04/29 05:50:51;;;;;;;;;;;;;;;9.89;52.54;95278.00;5096061;28;1080;-55
2023/04/29 05:53:17;;;;;;;;;;;;;;;10.01;54.80;95272.44;5096021;28;953;-54
2023/04/29 05:55:43;;;;;;;;;;;;;;;9.76;54.00;95264.22;5094889;28;1014;-56
2023/04/29 05:58:10;;;;;;;;;;;;;;;9.94;55.29;95267.72;5095989;28;965;-57
2023/04/29 06:00:36;;;;;;;;;;;;;;;10.20;54.30;95271.41;5096097;28;957;-57
2023/04/29 06:03:02;;;;;;;;;;;;;;;10.10;53.02;95276.84;5096076;28;1009;-56
2023/04/29 06:05:28;;;;;;;;;;;;;;;9.93;53.28;95270.53;5095708;28;1139;-56
2023/04/29 06:07:54;;;;;;;;;;;;;;;9.79;51.68;95269.25;5095465;28;1905;-56
2023/04/29 06:10:20;;;;;;;;;;;;;;;9.69;53.83;95253.28;5095528;28;965;-57
2023/04/29 06:12:49;;;;;;;;;;;;;;;9.38;54.30;95251.00;5094918;28;1000;-57
2023/04/29 06:15:16;;;;;;;;;;;;;;;9.14;54.15;95248.06;5094828;28;1228;-57
2023/04/29 06:17:42;;;;;;;;;;;;;;;9.12;55.03;95245.56;5095339;28;1045;-57
2023/04/29 06:20:08;;;;;;;;;;;;;;;9.12;55.07;95237.53;5095206;28;1049;-57
2023/04/29 06:22:34;;;;;;;;;;;;;;;9.43;54.29;95245.22;5093850;28;1084;-57
2023/04/29 06:25:00;;;;;;;;;;;;;;;9.64;53.81;95242.25;5095524;28;1047;-57
2023/04/29 06:27:27;;;;;;;;;;;;;;;9.71;50.80;95239.78;5094340;28;1909;-57
2023/04/29 06:29:53;;;;;;;;;;;;;;;9.89;51.33;95237.94;5095149;28;1116;-57
2023/04/29 06:32:18;;;;;;;;;;;;;;;10.25;50.38;95239.72;5095396;28;1072;-57
2023/04/29 06:34:45;;;;;;;;;;;;;;;10.87;49.57;95242.25;5095043;28;1053;-57
2023/04/29 06:37:11;;;;;;;;;;;;;;;11.30;50.16;95248.41;5094852;28;957;-57
2023/04/29 06:39:37;;;;;;;;;;;;;;;11.39;47.21;95243.94;5094170;28;978;-57
2023/04/29 06:42:03;;;;;;;;;;;;;;;11.18;45.18;95242.53;5095526;28;985;-57
2023/04/29 06:44:29;;;;;;;;;;;;;;;11.58;46.24;95245.47;5095164;28;1000;-57
2023/04/29 06:46:55;;;;;;;;;;;;;;;11.43;47.36;95238.09;5095094;28;1918;-57
2023/04/29 06:49:21;;;;;;;;;;;;;;;11.42;46.50;95236.41;5094769;28;1100;-57
2023/04/29 06:51:47;;;;;;;;;;;;;;;11.55;47.02;95232.41;5095084;28;953;-57
2023/04/29 06:54:13;;;;;;;;;;;;;;;12.25;45.95;95230.09;5094564;28;2049;-57
2023/04/29 06:56:39;;;;;;;;;;;;;;;12.78;43.56;95238.53;5094784;28;1032;-57
2023/04/29 06:59:05;;;;;;;;;;;;;;;13.19;43.04;95233.03;5094564;28;992;-57
2023/04/29 07:01:31;;;;;;;;;;;;;;;12.97;41.04;95236.47;5094821;28;1007;-57
2023/04/29 07:03:57;;;;;;;;;;;;;;;12.65;40.26;95233.75;5094554;28;1127;-57
2023/04/29 07:06:23;;;;;;;;;;;;;;;12.47;41.13;95225.06;5094486;28;1987;-57
2023/04/29 07:08:49;;;;;;;;;;;;;;;12.54;40.65;95231.41;5094423;28;1080;-57
2023/04/29 07:11:15;;;;;;;;;;;;;;;12.33;41.66;95225.75;5094338;28;981;-57
2023/04/29 07:13:41;;;;;;;;;;;;;;;12.28;43.57;95220.91;5094250;28;1283;-57
2023/04/29 07:16:20;;;;;;;;;;;;;;;12.02;44.10;95221.91;5094190;28;1084;-57
2023/04/29 07:18:47;;;;;;;;;;;;;;;11.98;45.50;95219.75;5094634;28;1040;-57
2023/04/29 07:21:13;;;;;;;;;;;;;;;12.09;44.66;95224.78;5094409;28;988;-57
2023/04/29 07:23:39;;;;;;;;;;;;;;;12.10;45.60;95223.75;5094106;28;1120;-57
2023/04/29 07:26:12;;;;;;;;;;;;;;;12.57;44.19;95212.28;5127013;27;985;-57
2023/04/29 07:28:38;;;;;;;;;;;;;;;12.68;44.10;95228.00;5094120;28;1041;-57
2023/04/29 07:31:05;;;;;;;;;;;;;;;12.70;44.13;95226.00;5094244;28;1016;-57
2023/04/29 07:33:31;;;;;;;;;;;;;;;12.91;45.63;95227.25;5093987;28;1104;-57
2023/04/29 07:35:57;;;;;;;;;;;;;;;12.96;43.66;95230.28;5094437;28;984;-57
2023/04/29 07:38:23;;;;;;;;;;;;;;;13.33;43.48;95223.41;5093749;28;1084;-57
2023/04/29 07:40:49;;;;;;;;;;;;;;;13.44;44.07;95220.31;5092714;28;1063;-57
2023/04/29 07:43:15;;;;;;;;;;;;;;;13.38;43.92;95218.34;5093923;28;989;-57
2023/04/29 07:45:41;;;;;;;;;;;;;;;13.50;43.50;95228.69;5094041;28;1012;-57
2023/04/29 07:48:08;;;;;;;;;;;;;;;13.56;43.18;95225.28;5093219;28;1910;-57
2023/04/29 07:50:35;;;;;;;;;;;;;;;12.92;44.56;95222.72;5093481;28;989;-57
2023/04/29 07:53:04;;;;;;;;;;;;;;;12.52;44.24;95220.03;5093578;28;1088;-57
2023/04/29 07:55:30;;;;;;;;;;;;;;;12.59;46.47;95215.63;5093515;28;930;-57
2023/04/29 07:57:56;;;;;;;;;;;;;;;12.65;47.03;95217.66;5093615;28;1037;-57
2023/04/29 08:00:23;;;;;;;;;;;;;;;12.55;44.05;95221.53;5093820;28;1051;-57
2023/04/29 08:02:52;;;;;;;;;;;;;;;12.49;46.29;95215.81;5093711;28;997;-57
2023/04/29 08:05:20;;;;;;;;;;;;;;;12.68;45.84;95217.28;5093693;28;1028;-57
2023/04/29 08:07:48;;;;;;;;;;;;;;;12.60;46.19;95214.63;5093325;28;1995;-57
2023/04/29 08:13:36;;;;;;;;;;;;;;;12.67;46.99;95204.91;5093418;28;1248;-56
2023/04/29 08:16:02;;;;;;;;;;;;;;;12.62;45.90;95214.47;5093461;28;1227;-57
2023/04/29 08:18:29;;;;;;;;;;;;;;;12.54;46.46;95209.09;5093487;28;1044;-56
2023/04/29 08:20:55;;;;;;;;;;;;;;;12.68;48.02;95205.72;5093650;28;1051;-55
2023/04/29 08:23:21;;;;;;;;;;;;;;;12.83;47.37;95198.63;5093447;28;1032;-57
2023/04/29 08:25:50;;;;;;;;;;;;;;;13.09;47.68;95200.19;5093290;28;1092;-56
2023/04/29 08:28:16;;;;;;;;;;;;;;;13.16;46.97;95198.47;5093526;28;2024;-56
2023/04/29 08:30:42;;;;;;;;;;;;;;;13.33;46.96;95201.94;5093289;28;1032;-57
2023/04/29 08:33:09;;;;;;;;;;;;;;;13.42;45.96;95200.88;5093310;28;1039;-57
2023/04/29 08:35:37;;;;;;;;;;;;;;;13.64;45.24;95206.44;5093268;28;1498;-57
2023/04/29 08:38:05;;;;;;;;;;;;;;;13.70;44.62;95200.34;5093392;28;1032;-58
2023/04/29 08:40:40;;;;;;;;;;;;;;;13.86;43.75;95202.06;5093462;28;965;-57
2023/04/29 08:43:08;;;;;;;;;;;;;;;13.70;44.87;95202.19;5092066;28;1155;-57
2023/04/29 08:45:35;;;;;;;;;;;;;;;13.54;43.66;95197.78;5093191;28;1045;-57
2023/04/29 08:48:02;;;;;;;;;;;;;;;13.59;44.54;95192.72;5093063;28;1992;-57
2023/04/29 08:50:28;;;;;;;;;;;;;;;13.77;43.83;95195.09;5091999;28;992;-57
2023/04/29 08:52:55;;;;;;;;;;;;;;;13.84;44.28;95204.94;5093337;28;1008;-58
2023/04/29 08:55:21;;;;;;;;;;;;;;;13.77;44.41;95193.25;5090854;28;1114;-57
2023/04/29 08:57:49;;;;;;;;;;;;;;;13.69;44.36;95192.47;5092072;28;1656;-57
2023/04/29 09:00:15;;;;;;;;;;;;;;;13.81;45.23;95191.00;5094485;28;1025;-56
2023/04/29 09:02:48;;;;;;;;;;;;;;;13.88;44.96;95185.78;5096926;28;1112;-58
2023/04/29 09:05:14;;;;;;;;;;;;;;;13.89;44.69;95184.75;5097053;28;1020;-58
2023/04/29 09:07:40;;;;;;;;;;;;;;;13.92;45.53;95173.63;5096414;28;1909;-58
2023/04/29 09:10:07;;;;;;;;;;;;;;;13.74;44.87;95184.72;5095615;28;1295;-57
2023/04/29 09:12:34;;;;;;;;;;;;;;;13.78;44.60;95180.66;5095646;28;1104;-57
2023/04/29 09:15:01;;;;;;;;;;;;;;;13.80;44.94;95173.25;5096681;28;1415;-57
2023/04/29 09:17:44;;;;;;;;;;;;;;;13.70;45.67;95173.50;5096661;28;1040;-57
2023/04/29 09:20:19;;;;;;;;;;;;;;;13.71;44.55;95169.78;5096600;28;1123;-57
2023/04/29 09:22:49;;;;;;;;;;;;;;;13.71;43.78;95164.41;5096684;28;1017;-58
2023/04/29 09:25:15;;;;;;;;;;;;;;;13.74;44.08;95164.03;5096577;28;1029;-57
2023/04/29 09:27:41;;;;;;;;;;;;;;;13.65;44.39;95162.44;5096115;28;1910;-58
2023/04/29 09:30:08;;;;;;;;;;;;;;;13.51;43.69;95165.88;5096510;28;1037;-58
2023/04/29 09:32:34;;;;;;;;;;;;;;;13.57;45.84;95159.81;5095318;28;1025;-57
2023/04/29 09:35:18;;;;;;;;;;;;;;;13.48;45.56;95154.50;5096303;28;1037;-58
2023/04/29 09:37:44;;;;;;;;;;;;;;;13.58;45.45;95148.03;5096001;28;1035;-56
2023/04/29 09:40:29;;;;;;;;;;;;;;;13.57;45.36;95144.53;5095222;28;1043;-57
2023/04/29 09:42:55;;;;;;;;;;;;;;;13.53;45.14;95145.91;5096382;28;1013;-56
2023/04/29 09:45:38;;;;;;;;;;;;;;;13.56;45.74;95147.38;5095837;28;1096;-58
2023/04/29 09:48:05;;;;;;;;;;;;;;;13.52;44.08;95149.59;5095338;28;1910;-58
2023/04/29 09:50:31;;;;;;;;;;;;;;;13.54;44.77;95149.41;5095114;28;977;-58
2023/04/29 09:52:58;;;;;;;;;;;;;;;13.79;44.51;95139.31;5094082;28;1000;-58
2023/04/29 09:55:25;;;;;;;;;;;;;;;13.97;43.73;95142.50;5094387;28;1063;-58
2023/04/29 09:57:52;;;;;;;;;;;;;;;14.14;43.68;95143.19;5095672;28;1241;-58
2023/04/29 10:00:18;;;;;;;;;;;;;;;14.13;43.82;95141.50;5095753;28;996;-58
2023/04/29 10:02:46;;;;;;;;;;;;;;;14.18;43.96;95136.44;5094562;28;931;-59
2023/04/29 10:05:13;;;;;;;;;;;;;;;14.09;43.87;95128.63;5095318;28;1038;-59
2023/04/29 10:07:40;;;;;;;;;;;;;;;14.33;43.05;95141.00;5095461;28;2020;-59
2023/04/29 10:10:07;;;;;;;;;;;;;;;14.33;42.63;95135.63;5095608;28;1101;-58
2023/04/29 10:12:37;;;;;;;;;;;;;;;14.77;43.56;95122.16;5094994;28;933;-59
2023/04/29 10:15:07;;;;;;;;;;;;;;;14.95;42.92;95123.59;5095267;28;1240;-59
2023/04/29 10:17:45;;;;;;;;;;;;;;;14.89;43.16;95125.22;5095133;28;1133;-59
2023/04/29 10:20:13;;;;;;;;;;;;;;;14.94;42.50;95124.66;5095178;28;965;-57
2023/04/29 10:22:44;;;;;;;;;;;;;;;15.06;42.89;95123.13;5095604;28;977;-58
2023/04/29 10:25:11;;;;;;;;;;;;;;;15.25;42.68;95118.97;5095599;28;1044;-55
2023/04/29 10:27:38;;;;;;;;;;;;;;;15.27;43.59;95121.50;5095034;28;1989;-59
2023/04/29 10:30:06;;;;;;;;;;;;;;;15.24;42.46;95120.03;5095483;28;969;-59
2023/04/29 10:32:33;;;;;;;;;;;;;;;15.20;42.29;95122.25;5095243;28;1020;-59
2023/04/29 10:35:01;;;;;;;;;;;;;;;15.23;41.47;95123.72;5095350;28;1041;-59
2023/04/29 10:37:27;;;;;;;;;;;;;;;15.37;43.55;95117.47;5095026;28;1127;-59
2023/04/29 10:39:56;;;;;;;;;;;;;;;15.31;43.31;95120.09;5095285;28;1039;-59
2023/04/29 10:42:31;;;;;;;;;;;;;;;15.33;43.92;95116.19;5095154;28;1036;-59
2023/04/29 10:45:17;;;;;;;;;;;;;;;15.45;43.65;95118.38;5094829;28;997;-59
2023/04/29 10:48:01;;;;;;;;;;;;;;;15.43;42.88;95119.38;5094880;28;1989;-59
2023/04/29 10:50:28;;;;;;;;;;;;;;;15.41;41.13;95117.94;5093775;28;1108;-59
2023/04/29 10:52:54;;;;;;;;;;;;;;;15.35;42.22;95114.13;5094625;28;1185;-59
2023/04/29 10:55:22;;;;;;;;;;;;;;;15.47;41.60;95116.31;5093759;28;1085;-59
2023/04/29 10:57:48;;;;;;;;;;;;;;;15.40;42.20;95111.72;5094611;28;1026;-59
2023/04/29 11:00:20;;;;;;;;;;;;;;;15.58;42.68;95107.72;5094787;28;977;-58
2023/04/29 11:02:46;;;;;;;;;;;;;;;15.86;41.63;95110.50;5093440;28;1038;-58
2023/04/29 11:05:12;;;;;;;;;;;;;;;15.85;41.76;95108.81;5094640;28;1215;-59
2023/04/29 11:07:39;;;;;;;;;;;;;;;15.76;41.91;95110.84;5093488;28;1985;-58
2023/04/29 11:10:05;;;;;;;;;;;;;;;15.76;42.34;95107.28;5093439;28;1036;-59
2023/04/29 11:12:32;;;;;;;;;;;;;;;15.81;41.26;95104.84;5093998;28;1066;-59
2023/04/29 11:15:03;;;;;;;;;;;;;;;15.82;40.86;95109.19;5094135;28;1872;-59
2023/04/29 11:17:36;;;;;;;;;;;;;;;16.09;40.93;95107.56;5094234;28;1041;-59
2023/04/29 11:20:02;;;;;;;;;;;;;;;16.18;40.76;95100.13;5094420;28;1033;-58
2023/04/29 11:22:29;;;;;;;;;;;;;;;16.20;40.43;95103.47;5093761;28;977;-58
2023/04/29 11:24:59;;;;;;;;;;;;;;;16.48;41.02;95102.63;5093291;28;1037;-59
2023/04/29 11:27:29;;;;;;;;;;;;;;;16.72;40.61;95101.28;5094221;28;1910;-59
2023/04/29 11:29:59;;;;;;;;;;;;;;;16.81;40.86;95097.38;5094377;28;977;-59
2023/04/29 11:32:32;;;;;;;;;;;;;;;16.87;39.91;95099.31;5093659;28;1199;-59
2023/04/29 11:35:18;;;;;;;;;;;;;;;16.82;39.78;95095.50;5094188;28;1051;-58
2023/04/29 11:37:45;;;;;;;;;;;;;;;16.77;40.07;95096.97;5094252;28;1099;-58
2023/04/29 11:40:12;;;;;;;;;;;;;;;16.76;40.53;95094.44;5093932;28;1032;-59
2023/04/29 11:42:42;;;;;;;;;;;;;;;16.59;40.86;95094.78;5093542;28;1054;-59
2023/04/29 11:45:09;;;;;;;;;;;;;;;16.49;40.28;95101.59;5093672;28;1028;-59
2023/04/29 11:47:35;;;;;;;;;;;;;;;16.31;41.13;95096.69;5093896;28;1906;-59
2023/04/29 11:50:10;;;;;;;;;;;;;;;16.25;41.96;95094.78;5093945;28;977;-59
2023/04/29 11:52:37;;;;;;;;;;;;;;;16.31;41.05;95094.00;5093725;28;1048;-59
2023/04/29 11:55:03;;;;;;;;;;;;;;;16.25;40.70;95086.69;5093757;28;1039;-59
2023/04/29 11:57:29;;;;;;;;;;;;;;;16.13;39.32;95091.81;5092335;28;1065;-59
2023/04/29 12:00:00;;;;;;;;;;;;;;;16.20;40.41;95092.66;5093520;28;1136;-58
2023/04/29 12:02:30;;;;;;;;;;;;;;;16.13;41.30;95089.94;5093334;28;1203;-58
2023/04/29 12:04:57;;;;;;;;;;;;;;;16.10;40.76;95078.72;5093315;28;1089;-59
2023/04/29 12:07:23;;;;;;;;;;;;;;;16.11;41.92;95070.44;5093457;28;1991;-58
2023/04/29 12:09:49;;;;;;;;;;;;;;;16.16;42.72;95073.38;5093549;28;1048;-59
2023/04/29 12:12:16;;;;;;;;;;;;;;;16.00;41.54;95068.28;5093011;28;1025;-58
2023/04/29 12:14:42;;;;;;;;;;;;;;;16.07;41.02;95069.16;5093588;28;1117;-58
2023/04/29 12:17:09;;;;;;;;;;;;;;;16.20;41.15;95077.34;5092021;28;1259;-59
2023/04/29 12:19:37;;;;;;;;;;;;;;;16.18;42.17;95076.72;5093239;28;1071;-58
2023/04/29 12:22:03;;;;;;;;;;;;;;;16.25;41.80;95065.13;5093370;28;976;-59
2023/04/29 12:24:36;;;;;;;;;;;;;;;16.23;41.76;95051.81;5093238;28;1135;-58
2023/04/29 12:27:03;;;;;;;;;;;;;;;16.02;40.96;95058.13;5093330;28;1982;-59
2023/04/29 12:29:30;;;;;;;;;;;;;;;16.07;40.81;95057.53;5093091;28;1092;-59
2023/04/29 12:31:56;;;;;;;;;;;;;;;16.19;40.83;95048.69;5092850;28;1116;-59
2023/04/29 12:34:27;;;;;;;;;;;;;;;16.50;41.42;95043.88;5093240;28;1045;-58
2023/04/29 12:36:54;;;;;;;;;;;;;;;16.54;40.98;95037.88;5096529;28;1056;-58
2023/04/29 12:39:20;;;;;;;;;;;;;;;16.52;41.43;95049.91;5097573;28;1048;-59
2023/04/29 12:41:46;;;;;;;;;;;;;;;16.69;42.22;95034.19;5097095;28;1080;-59
2023/04/29 12:44:12;;;;;;;;;;;;;;;16.59;41.58;95031.88;5097397;28;996;-58
2023/04/29 12:46:39;;;;;;;;;;;;;;;16.59;41.06;95039.97;5096231;28;1910;-58
2023/04/29 12:49:05;;;;;;;;;;;;;;;16.66;40.82;95031.91;5097108;28;1199;-59
2023/04/29 12:51:32;;;;;;;;;;;;;;;16.82;40.54;95034.28;5096925;28;1048;-58
2023/04/29 12:54:02;;;;;;;;;;;;;;;17.04;41.25;95031.44;5097331;28;989;-58
2023/04/29 12:56:36;;;;;;;;;;;;;;;17.24;39.92;95037.69;5104771;28;1138;-58
2023/04/29 12:59:28;;;;;;;;;;;;;;;17.37;40.94;95036.88;5099604;28;1642;-58
2023/04/29 13:01:54;;;;;;;;;;;;;;;17.50;40.44;95022.56;5095735;28;1111;-58
2023/04/29 13:04:20;;;;;;;;;;;;;;;17.61;40.08;95031.94;5096763;28;985;-57
2023/04/29 13:06:46;;;;;;;;;;;;;;;17.40;39.17;95030.25;5096904;28;1902;-57
2023/04/29 13:09:13;;;;;;;;;;;;;;;17.54;40.76;95026.50;5095795;28;1225;-58
2023/04/29 13:11:39;;;;;;;;;;;;;;;17.65;40.00;95016.97;5096426;28;1065;-58